createdAt,value
2019-04-26T00:00:35.787Z,17.29
2019-04-26T00:03:14.192Z,17.28
2019-04-26T00:05:50.357Z,17.29
2019-04-26T00:08:26.251Z,17.31
2019-04-26T00:11:03.802Z,17.33
2019-04-26T00:14:03.006Z,17.36
2019-04-26T00:16:47.981Z,17.35
2019-04-26T00:19:23.927Z,17.33
2019-04-26T00:22:00.190Z,17.28
2019-04-26T00:24:36.566Z,17.26
2019-04-26T00:27:12.710Z,17.24
2019-04-26T00:29:49.087Z,17.20
2019-04-26T00:32:25.143Z,17.15
2019-04-26T00:35:01.212Z,17.12
2019-04-26T00:37:37.172Z,17.07
2019-04-26T00:40:14.418Z,17.05
2019-04-26T00:42:52.118Z,16.98
2019-04-26T00:45:30.972Z,16.93
2019-04-26T00:48:07.648Z,16.88
2019-04-26T00:50:44.988Z,16.83
2019-04-26T00:53:22.204Z,16.76
2019-04-26T00:56:00.141Z,16.69
2019-04-26T00:58:37.208Z,16.60
2019-04-26T01:01:15.088Z,16.52
2019-04-26T01:03:52.090Z,16.42
2019-04-26T01:06:29.685Z,16.32
2019-04-26T01:09:07.076Z,16.22
2019-04-26T01:11:44.596Z,16.13
2019-04-26T01:14:20.480Z,16.01
2019-04-26T01:16:56.443Z,15.94
2019-04-26T01:19:33.425Z,15.87
2019-04-26T01:22:12.274Z,15.81
2019-04-26T01:24:49.985Z,15.73
2019-04-26T01:27:28.442Z,15.67
2019-04-26T01:30:10.178Z,15.59
2019-04-26T01:32:46.954Z,15.50
2019-04-26T01:35:24.173Z,15.41
2019-04-26T01:38:02.758Z,15.38
2019-04-26T01:40:42.483Z,15.30
2019-04-26T01:43:21.666Z,15.26
2019-04-26T01:46:02.914Z,15.22
2019-04-26T01:49:01.206Z,15.16
2019-04-26T01:51:48.931Z,15.12
2019-04-26T01:54:29.940Z,15.08
2019-04-26T01:57:06.472Z,15.04
2019-04-26T01:59:46.010Z,14.97
2019-04-26T02:02:32.617Z,14.90
2019-04-26T02:05:10.622Z,14.86
2019-04-26T02:07:46.900Z,14.82
2019-04-26T02:10:26.556Z,14.80
2019-04-26T02:13:02.691Z,14.75
2019-04-26T02:15:38.957Z,14.76
2019-04-26T02:18:14.919Z,14.79
2019-04-26T02:20:54.861Z,14.79
2019-04-26T02:23:38.597Z,14.82
2019-04-26T02:26:34.849Z,14.82
2019-04-26T02:29:13.963Z,14.84
2019-04-26T02:31:54.627Z,14.85
2019-04-26T02:34:35.227Z,14.88
2019-04-26T02:37:13.280Z,14.91
2019-04-26T02:39:49.665Z,14.89
2019-04-26T02:42:30.957Z,14.96
2019-04-26T02:45:20.840Z,14.99
2019-04-26T02:48:16.362Z,15.00
2019-04-26T02:50:56.823Z,15.03
2019-04-26T02:53:47.510Z,15.05
2019-04-26T02:56:30.297Z,15.06
2019-04-26T02:59:12.334Z,15.07
2019-04-26T03:01:50.694Z,15.07
2019-04-26T03:04:28.929Z,15.07
2019-04-26T03:07:09.007Z,15.03
2019-04-26T03:09:48.044Z,15.04
2019-04-26T03:12:26.965Z,15.06
2019-04-26T03:15:14.058Z,15.05
2019-04-26T03:17:56.927Z,15.07
2019-04-26T03:20:40.053Z,15.09
2019-04-26T03:23:20.193Z,15.10
2019-04-26T03:26:17.220Z,15.11
2019-04-26T03:29:02.090Z,15.10
2019-04-26T03:31:53.406Z,15.09
2019-04-26T03:34:43.367Z,15.07
2019-04-26T03:37:40.469Z,15.09
2019-04-26T03:40:38.945Z,15.09
2019-04-26T03:43:27.232Z,15.08
2019-04-26T03:46:24.219Z,15.09
2019-04-26T03:49:23.840Z,15.11
2019-04-26T03:52:19.562Z,15.15
2019-04-26T03:55:02.568Z,15.20
2019-04-26T03:57:47.025Z,15.21
2019-04-26T04:00:29.638Z,15.27
2019-04-26T04:03:26.835Z,15.34
2019-04-26T04:06:05.104Z,15.45
2019-04-26T04:08:48.164Z,15.57
2019-04-26T04:11:40.850Z,15.77
2019-04-26T04:14:34.964Z,16.57
2019-04-26T04:17:15.417Z,17.88
2019-04-26T04:20:13.710Z,19.13
2019-04-26T04:23:18.446Z,19.98
2019-04-26T04:25:56.365Z,21.03
2019-04-26T04:28:36.063Z,21.79
2019-04-26T04:31:35.254Z,22.35
2019-04-26T04:34:32.242Z,22.68
2019-04-26T04:37:11.151Z,23.03
2019-04-26T04:39:59.606Z,23.20
2019-04-26T04:42:58.414Z,23.21
2019-04-26T04:46:10.674Z,22.93
2019-04-26T04:49:25.530Z,22.41
2019-04-26T04:52:13.300Z,21.11
2019-04-26T04:55:06.769Z,19.92
2019-04-26T04:57:53.147Z,19.18
2019-04-26T05:00:56.061Z,18.70
2019-04-26T05:03:47.025Z,18.18
2019-04-26T05:06:35.809Z,17.86
2019-04-26T05:09:17.106Z,17.62
2019-04-26T05:12:07.943Z,17.45
2019-04-26T05:15:04.661Z,17.41
2019-04-26T05:17:43.475Z,17.37
2019-04-26T05:20:34.904Z,17.33
2019-04-26T05:23:42.541Z,17.32
2019-04-26T05:26:31.556Z,17.34
2019-04-26T05:29:42.123Z,17.36
2019-04-26T05:32:20.958Z,17.38
2019-04-26T05:35:06.029Z,17.42
2019-04-26T05:38:17.998Z,17.44
2019-04-26T05:41:03.195Z,17.52
2019-04-26T05:44:18.571Z,17.57
2019-04-26T05:47:31.094Z,17.61
2019-04-26T05:50:38.785Z,17.67
2019-04-26T05:53:44.755Z,17.76
2019-04-26T05:56:40.158Z,17.83
2019-04-26T05:59:46.589Z,17.94
2019-04-26T06:02:32.622Z,18.04
2019-04-26T06:05:25.183Z,18.11
2019-04-26T06:08:30.660Z,18.16
2019-04-26T06:11:02.705Z,18.21
2019-04-26T06:14:00.177Z,18.25
2019-04-26T06:16:49.316Z,18.27
2019-04-26T06:19:57.327Z,18.36
2019-04-26T06:22:36.242Z,18.41
2019-04-26T06:25:31.348Z,18.51
2019-04-26T06:28:20.768Z,18.57
2019-04-26T06:31:03.493Z,18.66
2019-04-26T06:33:42.469Z,18.75
2019-04-26T06:36:23.139Z,18.87
2019-04-26T06:39:21.407Z,18.94
2019-04-26T06:42:09.600Z,19.01
2019-04-26T06:45:21.449Z,19.07
2019-04-26T06:48:23.014Z,19.11
2019-04-26T06:51:24.668Z,19.15
2019-04-26T06:54:07.492Z,19.23
2019-04-26T06:57:11.500Z,19.37
2019-04-26T06:59:57.418Z,19.49
2019-04-26T07:03:08.472Z,19.60
2019-04-26T07:05:47.808Z,19.71
2019-04-26T07:08:38.921Z,19.76
2019-04-26T07:11:31.466Z,19.82
2019-04-26T07:14:19.610Z,19.86
2019-04-26T07:17:04.574Z,19.95
2019-04-26T07:20:04.399Z,20.07
2019-04-26T07:23:19.556Z,20.15
2019-04-26T07:26:08.621Z,20.25
2019-04-26T07:29:13.770Z,20.30
2019-04-26T07:32:09.524Z,20.35
2019-04-26T07:35:02.711Z,20.37
2019-04-26T07:38:06.950Z,20.42
2019-04-26T07:41:15.889Z,20.49
2019-04-26T07:44:14.169Z,20.58
2019-04-26T07:47:03.084Z,20.70
2019-04-26T07:50:11.566Z,20.72
2019-04-26T07:53:17.827Z,20.75
2019-04-26T07:56:13.582Z,20.80
2019-04-26T07:59:09.355Z,20.87
2019-04-26T08:02:24.024Z,20.94
2019-04-26T08:05:05.753Z,21.06
2019-04-26T08:07:45.203Z,21.19
2019-04-26T08:10:23.411Z,21.28
2019-04-26T08:13:06.097Z,21.34
2019-04-26T08:16:06.726Z,21.42
2019-04-26T08:18:51.163Z,21.48
2019-04-26T08:21:32.036Z,21.50
2019-04-26T08:24:18.980Z,21.51
2019-04-26T08:27:18.788Z,21.54
2019-04-26T08:29:50.608Z,21.55
2019-04-26T08:32:32.061Z,21.62
2019-04-26T08:35:16.127Z,21.70
2019-04-26T08:37:52.949Z,21.81
2019-04-26T08:40:31.424Z,21.86
2019-04-26T08:43:10.882Z,21.91
2019-04-26T08:46:02.850Z,21.95
2019-04-26T08:48:47.698Z,22.04
2019-04-26T08:51:25.190Z,22.15
2019-04-26T08:54:05.752Z,22.23
2019-04-26T08:56:44.666Z,22.35
2019-04-26T08:59:26.665Z,22.45
2019-04-26T09:02:05.920Z,22.53
2019-04-26T09:04:45.644Z,22.59
2019-04-26T09:07:31.401Z,22.63
2019-04-26T09:10:11.282Z,22.67
2019-04-26T09:12:49.373Z,22.74
2019-04-26T09:15:43.271Z,22.79
2019-04-26T09:18:20.353Z,22.87
2019-04-26T09:20:56.608Z,22.98
2019-04-26T09:23:52.183Z,23.02
2019-04-26T09:26:32.545Z,23.05
2019-04-26T09:29:26.457Z,23.07
2019-04-26T09:32:16.282Z,23.06
2019-04-26T09:34:52.311Z,23.14
2019-04-26T09:37:28.462Z,23.19
2019-04-26T09:40:10.545Z,23.29
2019-04-26T09:42:48.932Z,23.47
2019-04-26T09:45:35.796Z,23.67
2019-04-26T09:48:13.279Z,23.79
2019-04-26T09:50:50.875Z,23.93
2019-04-26T09:53:26.839Z,24.07
2019-04-26T09:56:02.797Z,24.16
2019-04-26T09:58:38.743Z,24.19
2019-04-26T10:01:14.712Z,24.20
2019-04-26T10:03:51.790Z,24.22
2019-04-26T10:06:29.729Z,24.25
2019-04-26T10:09:10.353Z,24.29
2019-04-26T10:11:54.814Z,24.27
2019-04-26T10:14:32.411Z,24.31
2019-04-26T10:17:15.795Z,24.33
2019-04-26T10:19:52.170Z,24.47
2019-04-26T10:22:29.690Z,24.61
2019-04-26T10:25:16.135Z,24.67
2019-04-26T10:27:46.007Z,24.74
2019-04-26T10:30:22.384Z,24.84
2019-04-26T10:33:02.093Z,24.99
2019-04-26T10:35:36.033Z,25.11
2019-04-26T10:38:13.134Z,25.16
2019-04-26T10:40:49.077Z,25.25
2019-04-26T10:43:25.032Z,25.30
2019-04-26T10:46:00.980Z,25.34
2019-04-26T10:48:36.948Z,25.40
2019-04-26T10:51:14.433Z,25.51
2019-04-26T10:53:54.889Z,25.59
2019-04-26T10:56:35.359Z,25.63
2019-04-26T10:59:18.808Z,25.72
2019-04-26T11:01:54.850Z,25.73
2019-04-26T11:04:30.985Z,25.80
2019-04-26T11:07:07.067Z,25.87
2019-04-26T11:09:43.131Z,25.97
2019-04-26T11:12:20.367Z,26.06
2019-04-26T11:14:57.032Z,26.10
2019-04-26T11:17:33.251Z,26.12
2019-04-26T11:20:10.551Z,26.19
2019-04-26T11:22:47.112Z,26.25
2019-04-26T11:25:24.625Z,26.30
2019-04-26T11:28:00.762Z,26.38
2019-04-26T11:30:36.710Z,26.53
2019-04-26T11:33:12.866Z,26.65
2019-04-26T11:35:48.936Z,26.69
2019-04-26T11:38:26.883Z,26.71
2019-04-26T11:41:06.328Z,26.73
2019-04-26T11:43:40.079Z,26.71
2019-04-26T11:46:16.347Z,26.77
2019-04-26T11:48:58.891Z,26.81
2019-04-26T11:51:29.992Z,26.88
2019-04-26T11:54:05.961Z,26.90
2019-04-26T11:56:41.915Z,26.86
2019-04-26T11:59:17.858Z,26.91
2019-04-26T12:01:53.815Z,26.91
2019-04-26T12:04:31.325Z,26.82
2019-04-26T12:07:11.975Z,26.85
2019-04-26T12:09:49.501Z,27.01
2019-04-26T12:12:25.721Z,27.18
2019-04-26T12:15:03.876Z,27.34
2019-04-26T12:17:40.942Z,27.38
2019-04-26T12:20:16.889Z,27.49
2019-04-26T12:22:52.846Z,27.42
2019-04-26T12:25:31.079Z,27.50
2019-04-26T12:28:07.384Z,27.55
2019-04-26T12:30:43.480Z,27.59
2019-04-26T12:33:19.425Z,27.69
2019-04-26T12:35:57.063Z,27.71
2019-04-26T12:38:33.089Z,27.78
2019-04-26T12:41:11.418Z,27.81
2019-04-26T12:43:46.628Z,27.80
2019-04-26T12:46:36.205Z,27.82
2019-04-26T12:49:12.276Z,27.83
2019-04-26T12:51:48.838Z,27.78
2019-04-26T12:54:25.923Z,27.70
2019-04-26T12:57:05.823Z,27.65
2019-04-26T12:59:44.453Z,27.56
2019-04-26T13:02:20.970Z,27.38
2019-04-26T13:04:54.864Z,27.20
2019-04-26T13:07:30.833Z,27.01
2019-04-26T13:10:12.519Z,26.84
2019-04-26T13:12:53.176Z,26.68
2019-04-26T13:15:51.799Z,26.65
2019-04-26T13:18:27.941Z,26.64
2019-04-26T13:21:04.379Z,26.63
2019-04-26T13:23:40.565Z,26.64
2019-04-26T13:26:16.524Z,26.64
2019-04-26T13:28:56.977Z,26.74
2019-04-26T13:31:31.723Z,26.81
2019-04-26T13:34:08.076Z,26.91
2019-04-26T13:36:44.018Z,26.97
2019-04-26T13:39:22.393Z,27.02
2019-04-26T13:42:04.512Z,27.07
2019-04-26T13:44:56.473Z,27.08
2019-04-26T13:47:35.063Z,27.08
2019-04-26T13:50:15.463Z,27.09
2019-04-26T13:52:51.402Z,27.06
2019-04-26T13:55:29.440Z,27.07
2019-04-26T13:58:06.410Z,27.08
2019-04-26T14:00:43.566Z,27.02
2019-04-26T14:03:20.154Z,26.95
2019-04-26T14:05:56.098Z,26.85
2019-04-26T14:08:32.067Z,26.83
2019-04-26T14:11:08.112Z,26.83
2019-04-26T14:13:44.081Z,26.79
2019-04-26T14:16:21.166Z,26.83
2019-04-26T14:18:57.736Z,26.82
2019-04-26T14:21:34.830Z,26.68
2019-04-26T14:24:24.065Z,26.68
2019-04-26T14:27:04.143Z,26.64
2019-04-26T14:29:40.196Z,26.61
2019-04-26T14:32:16.155Z,26.54
2019-04-26T14:34:52.212Z,26.51
2019-04-26T14:37:29.183Z,26.53
2019-04-26T14:40:16.607Z,26.53
2019-04-26T14:42:47.201Z,26.54
2019-04-26T14:45:24.139Z,26.47
2019-04-26T14:48:03.982Z,26.51
2019-04-26T14:50:38.178Z,26.43
2019-04-26T14:53:14.071Z,26.42
2019-04-26T14:55:51.188Z,26.41
2019-04-26T14:58:30.092Z,26.38
2019-04-26T15:01:07.021Z,26.35
2019-04-26T15:04:00.586Z,26.33
2019-04-26T15:06:38.197Z,26.27
2019-04-26T15:09:19.820Z,26.23
2019-04-26T15:11:58.610Z,26.16
2019-04-26T15:14:31.221Z,26.09
2019-04-26T15:17:07.346Z,26.04
2019-04-26T15:19:45.919Z,25.98
2019-04-26T15:22:20.988Z,25.92
2019-04-26T15:24:57.266Z,25.89
2019-04-26T15:27:36.272Z,25.82
2019-04-26T15:30:11.326Z,25.81
2019-04-26T15:32:47.273Z,25.84
2019-04-26T15:35:23.325Z,25.80
2019-04-26T15:38:01.437Z,25.77
2019-04-26T15:40:42.480Z,25.75
2019-04-26T15:43:20.121Z,25.69
2019-04-26T15:46:14.031Z,25.68
2019-04-26T15:49:09.523Z,25.66
2019-04-26T15:51:46.079Z,25.58
2019-04-26T15:54:23.032Z,25.55
2019-04-26T15:56:59.009Z,25.52
2019-04-26T15:59:34.979Z,25.54
2019-04-26T16:02:12.440Z,25.52
2019-04-26T16:04:51.365Z,25.55
2019-04-26T16:07:28.793Z,25.51
2019-04-26T16:10:04.739Z,25.45
2019-04-26T16:12:42.249Z,25.33
2019-04-26T16:15:18.279Z,25.22
2019-04-26T16:17:54.238Z,25.08
2019-04-26T16:20:37.414Z,24.92
2019-04-26T16:23:09.016Z,24.82
2019-04-26T16:25:44.973Z,24.68
2019-04-26T16:28:26.570Z,24.57
2019-04-26T16:31:22.602Z,24.45
2019-04-26T16:34:04.105Z,24.31
2019-04-26T16:36:43.849Z,24.17
2019-04-26T16:39:16.089Z,24.09
2019-04-26T16:41:52.495Z,24.03
2019-04-26T16:44:31.411Z,23.97
2019-04-26T16:47:07.439Z,23.93
2019-04-26T16:49:46.250Z,23.90
2019-04-26T16:52:21.110Z,23.88
2019-04-26T16:55:02.323Z,23.86
2019-04-26T16:57:35.167Z,23.84
2019-04-26T17:00:15.800Z,23.82
2019-04-26T17:02:49.814Z,23.79
2019-04-26T17:05:46.904Z,23.76
2019-04-26T17:08:05.144Z,23.74
2019-04-26T17:10:42.041Z,23.69
2019-04-26T17:13:18.050Z,23.65
2019-04-26T17:15:58.235Z,23.60
2019-04-26T17:18:32.391Z,23.52
2019-04-26T17:21:08.461Z,23.46
2019-04-26T17:23:52.984Z,23.39
2019-04-26T17:26:36.437Z,23.30
2019-04-26T17:29:11.835Z,23.21
2019-04-26T17:31:47.728Z,23.11
2019-04-26T17:34:28.860Z,23.04
2019-04-26T17:37:02.474Z,22.96
2019-04-26T17:39:40.681Z,22.84
2019-04-26T17:42:16.705Z,22.74
2019-04-26T17:44:52.622Z,22.64
2019-04-26T17:47:34.650Z,22.55
2019-04-26T17:50:08.529Z,22.43
2019-04-26T17:52:44.447Z,22.34
2019-04-26T17:55:20.463Z,22.21
2019-04-26T17:58:09.733Z,22.13
2019-04-26T18:00:45.580Z,22.03
2019-04-26T18:03:14.850Z,21.94
2019-04-26T18:05:56.988Z,21.82
2019-04-26T18:08:41.061Z,21.71
2019-04-26T18:11:04.673Z,21.59
2019-04-26T18:13:40.711Z,21.52
2019-04-26T18:16:17.748Z,21.46
2019-04-26T18:19:13.073Z,21.39
2019-04-26T18:22:08.913Z,21.34
2019-04-26T18:24:44.978Z,21.25
2019-04-26T18:27:20.890Z,21.16
2019-04-26T18:29:59.810Z,21.10
2019-04-26T18:32:42.132Z,21.02
2019-04-26T18:35:16.642Z,20.96
2019-04-26T18:37:50.728Z,20.92
2019-04-26T18:40:26.682Z,20.86
2019-04-26T18:43:03.456Z,20.84
2019-04-26T18:45:39.556Z,20.81
2019-04-26T18:48:15.475Z,20.78
2019-04-26T18:50:51.383Z,20.73
2019-04-26T18:53:39.390Z,20.70
2019-04-26T18:56:14.036Z,20.65
2019-04-26T18:58:51.552Z,20.60
2019-04-26T19:01:27.551Z,20.57
2019-04-26T19:04:09.871Z,20.52
2019-04-26T19:06:42.323Z,20.49
2019-04-26T19:09:21.230Z,20.46
2019-04-26T19:11:57.602Z,20.43
2019-04-26T19:14:49.753Z,20.39
2019-04-26T19:17:33.832Z,20.38
2019-04-26T19:20:11.643Z,20.35
2019-04-26T19:22:50.397Z,20.33
2019-04-26T19:25:29.857Z,20.29
2019-04-26T19:28:08.189Z,20.29
2019-04-26T19:30:49.514Z,20.24
2019-04-26T19:33:21.806Z,20.26
2019-04-26T19:35:57.808Z,20.23
2019-04-26T19:38:33.816Z,20.23
2019-04-26T19:41:09.728Z,20.20
2019-04-26T19:43:46.287Z,20.19
2019-04-26T19:46:25.278Z,20.17
2019-04-26T19:49:19.060Z,20.13
2019-04-26T19:52:14.856Z,20.07
2019-04-26T19:54:53.029Z,20.01
2019-04-26T19:57:47.734Z,19.95
2019-04-26T20:00:25.073Z,19.91
2019-04-26T20:03:01.642Z,19.85
2019-04-26T20:05:40.593Z,19.83
2019-04-26T20:08:15.324Z,19.79
2019-04-26T20:10:52.085Z,19.75
2019-04-26T20:13:28.063Z,19.69
2019-04-26T20:16:06.053Z,19.64
2019-04-26T20:18:42.134Z,19.59
2019-04-26T20:21:18.070Z,19.54
2019-04-26T20:23:54.644Z,19.48
2019-04-26T20:26:31.500Z,19.40
2019-04-26T20:29:10.189Z,19.34
2019-04-26T20:31:47.832Z,19.29
2019-04-26T20:34:23.811Z,19.23
2019-04-26T20:37:01.391Z,19.22
2019-04-26T20:39:38.529Z,19.12
2019-04-26T20:42:14.593Z,19.06
2019-04-26T20:44:53.111Z,19.01
2019-04-26T20:47:28.240Z,18.97
2019-04-26T20:50:05.715Z,18.91
2019-04-26T20:52:41.692Z,18.87
2019-04-26T20:55:17.583Z,18.80
2019-04-26T20:57:53.604Z,18.71
2019-04-26T21:00:31.518Z,18.77
2019-04-26T21:03:20.135Z,18.77
2019-04-26T21:05:46.619Z,18.69
2019-04-26T21:08:25.770Z,18.69
2019-04-26T21:11:01.705Z,18.68
2019-04-26T21:13:38.251Z,18.63
2019-04-26T21:16:15.564Z,18.57
2019-04-26T21:18:52.352Z,18.52
2019-04-26T21:21:28.481Z,18.44
2019-04-26T21:24:05.843Z,18.41
2019-04-26T21:26:46.632Z,18.28
2019-04-26T21:29:28.324Z,18.28
2019-04-26T21:32:08.886Z,18.24
2019-04-26T21:34:50.487Z,18.23
2019-04-26T21:37:28.487Z,18.20
2019-04-26T21:40:07.345Z,18.18
2019-04-26T21:42:45.074Z,18.17
2019-04-26T21:45:28.463Z,18.21
2019-04-26T21:48:02.669Z,18.21
2019-04-26T21:50:39.051Z,18.31
2019-04-26T21:53:14.868Z,18.36
2019-04-26T21:55:50.818Z,18.34
2019-04-26T21:58:26.781Z,18.29
2019-04-26T22:01:04.467Z,18.23
2019-04-26T22:03:47.413Z,18.20
2019-04-26T22:06:24.487Z,18.21
2019-04-26T22:09:02.545Z,18.19
2019-04-26T22:11:38.506Z,18.18
2019-04-26T22:14:20.052Z,18.18
2019-04-26T22:17:02.318Z,18.17
2019-04-26T22:19:49.862Z,18.19
2019-04-26T22:22:27.354Z,18.18
2019-04-26T22:25:05.043Z,18.11
2019-04-26T22:27:40.951Z,18.10
2019-04-26T22:30:22.725Z,18.10
2019-04-26T22:32:58.532Z,18.05
2019-04-26T22:35:34.601Z,18.00
2019-04-26T22:38:10.561Z,17.94
2019-04-26T22:40:48.534Z,17.89
2019-04-26T22:43:28.528Z,17.82
2019-04-26T22:46:14.106Z,17.72
2019-04-26T22:48:54.645Z,17.65
2019-04-26T22:51:33.514Z,17.53
2019-04-26T22:54:07.284Z,17.48
2019-04-26T22:56:43.830Z,17.41
2019-04-26T22:59:20.850Z,17.32
2019-04-26T23:01:56.795Z,17.26
2019-04-26T23:04:33.056Z,17.08
2019-04-26T23:07:10.859Z,17.05
2019-04-26T23:09:51.777Z,16.99
2019-04-26T23:12:33.419Z,16.90
2019-04-26T23:15:30.142Z,16.82
2019-04-26T23:18:14.014Z,16.75
2019-04-26T23:20:51.103Z,16.69
2019-04-26T23:23:27.044Z,16.64
2019-04-26T23:26:06.304Z,16.59
2019-04-26T23:28:40.915Z,16.54
2019-04-26T23:31:16.861Z,16.49
2019-04-26T23:33:53.939Z,16.42
2019-04-26T23:36:30.112Z,16.34
2019-04-26T23:39:07.717Z,16.30
2019-04-26T23:41:45.303Z,16.16
2019-04-26T23:44:23.067Z,16.09
2019-04-26T23:47:01.209Z,16.09
2019-04-26T23:49:36.654Z,15.93
2019-04-26T23:52:14.569Z,15.87
2019-04-26T23:54:50.402Z,15.83
2019-04-26T23:57:27.400Z,15.83
